Time;durP1;ratioP1;P1;durP2;ratioP2;P2;SDS_P1;SDS_P2;PMS_P1;PMS_P2;Temp;Humidity;BMP_temperature;BMP_pressure;BME280_temperature;BME280_humidity;BME280_pressure;Samples;Min_cycle;Max_cycle;Signal;HPM_P1;HPM_P2
2021/10/07 00:01:16;;;;;;;10.23;6.20;;;12.40;99.90;;;;;;5013286;28;20291;-49
2021/10/07 00:03:52;;;;;;;8.90;5.80;;;12.50;99.90;;;;;;5014613;28;20210;-48
2021/10/07 00:06:20;;;;;;;10.90;6.43;;;12.50;99.90;;;;;;5011494;28;20274;-49
2021/10/07 00:08:47;;;;;;;13.37;6.20;;;12.50;99.90;;;;;;5010397;28;20241;-49
2021/10/07 00:11:16;;;;;;;13.63;6.37;;;12.50;99.90;;;;;;5011858;28;20271;-49
2021/10/07 00:13:43;;;;;;;14.33;7.23;;;12.50;99.90;;;;;;5014308;28;20251;-49
2021/10/07 00:16:10;;;;;;;10.70;7.27;;;12.40;99.90;;;;;;5015351;28;20224;-49
2021/10/07 00:18:39;;;;;;;12.23;7.23;;;12.20;99.90;;;;;;5008176;28;20260;-49
2021/10/07 00:21:07;;;;;;;11.87;7.60;;;12.20;99.90;;;;;;5005527;28;20656;-49
2021/10/07 00:23:41;;;;;;;13.43;7.27;;;12.10;99.90;;;;;;5009997;28;20243;-49
2021/10/07 00:26:08;;;;;;;9.93;6.57;;;12.20;99.90;;;;;;5008763;28;20205;-49
2021/10/07 00:28:34;;;;;;;10.77;7.27;;;12.20;99.90;;;;;;5007701;28;20311;-49
2021/10/07 00:31:04;;;;;;;11.07;7.17;;;12.30;99.90;;;;;;5009718;28;20727;-48
2021/10/07 00:34:21;;;;;;;9.03;7.10;;;11.90;99.90;;;;;;5008064;28;20235;-48
2021/10/07 00:39:03;;;;;;;10.03;6.17;;;11.80;99.90;;;;;;5007627;28;20310;-49
2021/10/07 00:41:31;;;;;;;10.57;6.77;;;12.10;99.90;;;;;;5002480;28;20307;-48
2021/10/07 00:44:09;;;;;;;8.00;5.73;;;12.10;99.90;;;;;;5009683;28;20270;-49
2021/10/07 00:46:59;;;;;;;7.70;6.30;;;12.10;99.90;;;;;;5009002;28;20298;-49
2021/10/07 00:49:27;;;;;;;13.13;6.43;;;12.10;99.90;;;;;;5021946;28;20290;-49
2021/10/07 00:51:54;;;;;;;8.23;5.60;;;12.10;99.90;;;;;;5003557;28;20296;-50
2021/10/07 00:54:25;;;;;;;8.53;5.40;;;12.10;99.90;;;;;;5008250;28;20254;-49
2021/10/07 00:56:54;;;;;;;8.07;5.40;;;12.10;99.90;;;;;;5003754;28;20227;-49
2021/10/07 00:59:21;;;;;;;9.10;6.23;;;12.10;99.90;;;;;;5007193;28;20228;-50
2021/10/07 01:01:48;;;;;;;9.70;6.13;;;12.10;99.90;;;;;;5003600;28;20645;-49
2021/10/07 01:04:15;;;;;;;8.33;5.90;;;12.10;99.90;;;;;;5005774;28;20210;-49
2021/10/07 01:06:43;;;;;;;8.23;6.07;;;12.00;99.90;;;;;;5008921;28;20205;-49
2021/10/07 01:09:16;;;;;;;6.97;5.90;;;12.10;99.90;;;;;;5009287;28;20210;-49
2021/10/07 01:11:44;;;;;;;8.77;5.87;;;12.10;99.90;;;;;;5006421;28;20201;-49
2021/10/07 01:14:10;;;;;;;7.20;6.10;;;12.00;99.90;;;;;;5008120;28;20193;-49
2021/10/07 01:16:37;;;;;;;8.60;5.33;;;12.00;99.90;;;;;;5003906;28;20215;-49
2021/10/07 01:19:04;;;;;;;5.80;4.80;;;11.90;99.90;;;;;;5019630;28;20310;-49
2021/10/07 01:21:31;;;;;;;7.37;5.27;;;11.90;99.90;;;;;;5001500;28;20350;-49
2021/10/07 01:23:58;;;;;;;7.23;5.60;;;11.90;99.90;;;;;;5006927;28;20288;-49
2021/10/07 01:26:26;;;;;;;7.63;5.57;;;11.90;99.90;;;;;;5010405;28;20605;-49
2021/10/07 01:28:53;;;;;;;6.07;4.83;;;12.00;99.90;;;;;;5016115;28;20200;-49
2021/10/07 01:31:20;;;;;;;5.43;4.60;;;11.80;99.90;;;;;;5010834;28;20201;-49
2021/10/07 01:33:48;;;;;;;5.57;4.80;;;12.00;99.90;;;;;;5011515;28;20203;-49
2021/10/07 01:36:14;;;;;;;6.47;5.03;;;12.00;99.90;;;;;;5006731;28;20201;-49
2021/10/07 01:38:41;;;;;;;8.60;4.67;;;11.90;99.90;;;;;;5013254;28;20300;-49
2021/10/07 01:41:09;;;;;;;8.37;5.00;;;11.70;99.90;;;;;;5009503;28;20205;-49
2021/10/07 01:43:35;;;;;;;6.07;5.10;;;11.50;99.90;;;;;;5013145;28;20326;-48
2021/10/07 01:46:02;;;;;;;6.13;4.90;;;11.50;99.90;;;;;;5009570;28;20207;-49
2021/10/07 01:48:32;;;;;;;6.17;4.67;;;11.60;99.90;;;;;;5009898;28;20200;-49
2021/10/07 01:51:00;;;;;;;5.37;4.43;;;11.70;99.90;;;;;;5011280;28;20258;-49
2021/10/07 01:53:27;;;;;;;7.43;4.40;;;11.70;99.90;;;;;;5010047;28;20270;-49
2021/10/07 01:55:54;;;;;;;6.13;4.43;;;11.70;99.90;;;;;;5009769;28;20530;-49
2021/10/07 01:58:21;;;;;;;7.30;4.60;;;11.50;99.90;;;;;;5012782;28;20232;-50
2021/10/07 02:00:48;;;;;;;8.67;4.80;;;11.50;99.90;;;;;;5010966;28;21212;-48
2021/10/07 02:03:16;;;;;;;6.00;4.87;;;11.60;99.90;;;;;;5012020;28;20692;-48
2021/10/07 02:05:43;;;;;;;7.77;5.27;;;11.70;99.90;;;;;;5011414;28;20269;-49
2021/10/07 02:08:10;;;;;;;7.50;5.17;;;11.70;99.90;;;;;;5010664;28;20207;-49
2021/10/07 02:10:37;;;;;;;8.63;5.03;;;11.70;99.90;;;;;;5008975;28;20744;-48
2021/10/07 02:13:04;;;;;;;7.93;5.10;;;11.50;99.90;;;;;;5010188;28;20307;-49
2021/10/07 02:15:31;;;;;;;6.13;5.23;;;11.50;99.90;;;;;;5015872;28;20725;-48
2021/10/07 02:17:57;;;;;;;7.10;5.30;;;11.60;99.90;;;;;;5012255;28;20212;-48
2021/10/07 02:20:25;;;;;;;6.30;4.87;;;11.60;99.90;;;;;;5010072;28;20240;-49
2021/10/07 02:22:51;;;;;;;7.93;5.50;;;11.60;99.90;;;;;;5007146;28;20644;-48
2021/10/07 02:25:18;;;;;;;6.80;5.00;;;11.70;99.90;;;;;;5009337;28;20262;-49
2021/10/07 02:27:45;;;;;;;6.80;5.40;;;11.80;99.90;;;;;;5003337;28;20207;-49
2021/10/07 02:30:15;;;;;;;6.07;4.83;;;11.90;99.90;;;;;;5012453;28;20235;-49
2021/10/07 02:32:42;;;;;;;6.33;4.73;;;11.90;99.90;;;;;;5008210;28;20573;-49
2021/10/07 02:35:09;;;;;;;6.10;4.70;;;12.00;99.90;;;;;;5012210;28;20556;-48
2021/10/07 02:37:36;;;;;;;5.90;4.57;;;12.10;99.90;;;;;;5012237;28;20791;-49
2021/10/07 02:40:03;;;;;;;5.87;4.90;;;12.10;99.90;;;;;;5013281;28;20817;-49
2021/10/07 02:42:30;;;;;;;7.77;4.90;;;12.10;99.90;;;;;;5010587;28;20586;-49
2021/10/07 02:44:57;;;;;;;6.07;4.90;;;12.10;99.90;;;;;;5012393;28;20291;-49
2021/10/07 02:47:24;;;;;;;7.27;4.67;;;12.00;99.90;;;;;;5015038;28;20624;-49
2021/10/07 02:49:51;;;;;;;5.23;4.47;;;12.10;99.90;;;;;;5010393;28;20292;-49
2021/10/07 02:52:17;;;;;;;5.50;4.70;;;12.10;99.90;;;;;;5011922;28;20218;-49
2021/10/07 02:54:44;;;;;;;7.73;5.00;;;12.10;99.90;;;;;;5011160;28;20305;-49
2021/10/07 02:57:15;;;;;;;5.10;4.60;;;12.10;99.90;;;;;;5009031;28;20702;-49
2021/10/07 02:59:43;;;;;;;7.03;4.70;;;12.10;99.90;;;;;;5016132;28;20223;-49
2021/10/07 03:02:10;;;;;;;6.07;5.00;;;12.00;99.90;;;;;;5014028;28;20228;-48
2021/10/07 03:04:37;;;;;;;6.20;4.97;;;12.00;99.90;;;;;;5014025;28;20253;-48
2021/10/07 03:07:04;;;;;;;8.77;5.03;;;12.00;99.90;;;;;;5011508;28;20251;-48
2021/10/07 03:09:30;;;;;;;7.33;4.93;;;12.00;99.90;;;;;;5009143;28;20311;-48
2021/10/07 03:11:57;;;;;;;6.43;5.50;;;12.00;99.90;;;;;;5009497;28;20218;-49
2021/10/07 03:14:24;;;;;;;8.03;5.53;;;12.10;99.90;;;;;;5015628;28;20299;-48
2021/10/07 03:16:51;;;;;;;6.60;5.10;;;12.10;99.90;;;;;;5010445;28;20243;-48
2021/10/07 03:19:18;;;;;;;6.00;4.77;;;12.10;99.90;;;;;;5012126;28;20248;-48
2021/10/07 03:21:44;;;;;;;6.33;5.17;;;12.10;99.90;;;;;;5009828;28;20201;-48
2021/10/07 03:24:11;;;;;;;7.17;4.97;;;12.00;99.90;;;;;;5017452;28;20234;-49
2021/10/07 03:26:38;;;;;;;6.80;4.73;;;12.00;99.90;;;;;;5012509;28;20293;-48
2021/10/07 03:29:05;;;;;;;5.10;4.20;;;12.00;99.90;;;;;;5012499;28;20205;-49
2021/10/07 03:31:32;;;;;;;6.20;4.73;;;11.90;99.90;;;;;;5010426;28;20801;-49
2021/10/07 03:33:59;;;;;;;6.30;4.40;;;12.00;99.90;;;;;;5012822;28;20243;-49
2021/10/07 03:36:26;;;;;;;4.83;4.17;;;11.80;99.90;;;;;;5013459;28;20605;-49
2021/10/07 03:38:53;;;;;;;4.50;4.00;;;11.80;99.90;;;;;;5015126;28;20761;-49
2021/10/07 03:41:20;;;;;;;4.00;3.60;;;11.90;99.90;;;;;;5004973;28;20216;-48
2021/10/07 03:43:47;;;;;;;5.10;3.73;;;11.70;99.90;;;;;;5013762;28;20281;-49
2021/10/07 03:46:14;;;;;;;4.43;3.63;;;11.50;99.90;;;;;;5019315;28;20204;-48
2021/10/07 03:48:41;;;;;;;3.43;3.07;;;11.50;99.90;;;;;;5017005;28;20234;-49
2021/10/07 03:51:08;;;;;;;3.70;3.40;;;11.20;99.90;;;;;;5016429;28;20523;-48
2021/10/07 03:53:35;;;;;;;3.63;3.33;;;11.30;99.90;;;;;;5013952;28;20266;-48
2021/10/07 03:56:02;;;;;;;4.53;3.07;;;11.50;99.90;;;;;;5006612;28;20236;-49
2021/10/07 03:58:29;;;;;;;3.67;3.20;;;11.50;99.90;;;;;;5013909;28;20216;-49
2021/10/07 04:00:55;;;;;;;5.13;3.37;;;11.50;99.90;;;;;;5015144;28;20201;-48
2021/10/07 04:03:22;;;;;;;3.80;3.40;;;11.60;99.90;;;;;;5011024;28;20200;-49
2021/10/07 04:05:49;;;;;;;4.17;3.70;;;11.50;99.90;;;;;;5015872;28;20208;-49
2021/10/07 04:08:16;;;;;;;6.07;4.17;;;11.50;99.90;;;;;;5009267;28;20199;-49
2021/10/07 04:10:43;;;;;;;3.90;3.27;;;11.50;99.90;;;;;;5013914;28;20209;-48
2021/10/07 04:13:10;;;;;;;4.23;3.83;;;11.50;99.90;;;;;;5011233;28;20258;-48
2021/10/07 04:15:37;;;;;;;4.50;3.53;;;11.70;99.90;;;;;;5019376;28;20231;-49
2021/10/07 04:18:04;;;;;;;5.80;4.07;;;11.70;99.90;;;;;;5012750;28;20200;-48
2021/10/07 04:20:31;;;;;;;6.27;3.97;;;11.70;99.90;;;;;;5014851;28;20269;-48
2021/10/07 04:22:58;;;;;;;5.00;4.37;;;11.70;99.90;;;;;;5015970;28;20220;-49
2021/10/07 04:25:24;;;;;;;6.23;4.00;;;11.70;99.90;;;;;;5012419;28;20245;-48
2021/10/07 04:27:56;;;;;;;6.17;4.70;;;11.70;99.90;;;;;;5013932;28;20214;-48
2021/10/07 04:30:24;;;;;;;7.10;4.13;;;11.90;99.90;;;;;;5014386;28;20665;-48
2021/10/07 04:32:51;;;;;;;7.03;4.80;;;11.90;99.90;;;;;;5011784;28;20259;-49
2021/10/07 04:35:18;;;;;;;5.23;4.40;;;11.80;99.90;;;;;;5013504;28;20235;-49
2021/10/07 04:37:45;;;;;;;5.10;4.43;;;11.70;99.90;;;;;;5013391;28;20714;-49
2021/10/07 04:40:12;;;;;;;5.73;4.33;;;11.90;99.90;;;;;;5007733;28;20702;-49
2021/10/07 04:42:39;;;;;;;6.33;4.20;;;11.90;99.90;;;;;;5015503;28;20619;-49
2021/10/07 04:45:07;;;;;;;7.53;4.60;;;11.90;99.90;;;;;;5014884;28;20226;-49
2021/10/07 04:47:34;;;;;;;7.07;4.17;;;11.90;99.90;;;;;;5013279;28;20704;-48
2021/10/07 04:50:00;;;;;;;9.13;4.63;;;11.90;99.90;;;;;;5016682;28;20566;-49
2021/10/07 04:52:27;;;;;;;7.47;4.40;;;12.00;99.90;;;;;;5011063;28;20207;-49
2021/10/07 04:54:54;;;;;;;7.37;4.77;;;12.00;99.90;;;;;;5014621;28;20240;-50
2021/10/07 04:57:21;;;;;;;6.93;4.77;;;12.10;99.90;;;;;;5014275;28;20212;-51
2021/10/07 04:59:48;;;;;;;7.60;4.53;;;12.10;99.90;;;;;;5017969;28;20294;-49
2021/10/07 05:02:14;;;;;;;5.47;4.20;;;12.10;99.90;;;;;;5014828;28;20200;-49
2021/10/07 05:04:41;;;;;;;8.17;4.20;;;12.10;99.90;;;;;;5014219;28;20204;-49
2021/10/07 05:07:08;;;;;;;6.87;4.00;;;12.20;99.90;;;;;;5014158;28;20260;-50
2021/10/07 05:09:35;;;;;;;9.10;4.07;;;12.20;99.90;;;;;;5015800;28;20897;-50
2021/10/07 05:12:02;;;;;;;9.73;4.60;;;12.20;99.90;;;;;;5012345;28;20285;-49
2021/10/07 05:14:28;;;;;;;7.27;4.53;;;12.20;99.90;;;;;;5010856;28;20749;-50
2021/10/07 05:16:55;;;;;;;6.90;4.50;;;12.20;99.90;;;;;;5011907;28;20598;-49
2021/10/07 05:19:22;;;;;;;6.03;4.60;;;12.20;99.90;;;;;;5008947;28;20235;-49
2021/10/07 05:21:49;;;;;;;9.63;5.20;;;12.20;99.90;;;;;;5011019;28;20246;-49
2021/10/07 05:24:16;;;;;;;10.30;4.70;;;12.30;99.90;;;;;;5013808;28;20242;-49
2021/10/07 05:26:43;;;;;;;10.70;4.97;;;12.30;99.90;;;;;;5008263;28;21046;-49
2021/10/07 05:29:09;;;;;;;7.47;4.33;;;12.40;99.90;;;;;;5012296;28;20308;-49
2021/10/07 05:31:36;;;;;;;7.97;4.53;;;12.40;99.90;;;;;;5008134;28;20361;-49
2021/10/07 05:34:03;;;;;;;12.17;5.50;;;12.40;99.90;;;;;;5009235;28;21058;-48
2021/10/07 05:36:31;;;;;;;8.03;4.27;;;12.40;99.90;;;;;;5012016;28;20258;-49
2021/10/07 05:38:58;;;;;;;8.83;4.50;;;12.40;99.90;;;;;;5014747;28;20241;-49
2021/10/07 05:41:25;;;;;;;11.27;5.50;;;12.30;99.90;;;;;;5013644;28;20301;-49
2021/10/07 05:43:52;;;;;;;8.43;5.53;;;12.40;99.90;;;;;;5010239;28;20405;-50
2021/10/07 05:46:19;;;;;;;10.83;6.13;;;12.40;99.90;;;;;;5013746;28;20291;-50
2021/10/07 05:48:46;;;;;;;9.53;5.63;;;12.30;99.90;;;;;;5009938;28;20206;-50
2021/10/07 05:51:13;;;;;;;8.47;5.63;;;12.30;99.90;;;;;;5011240;28;20207;-49
2021/10/07 05:53:39;;;;;;;10.07;6.20;;;12.30;99.90;;;;;;5005944;28;20236;-49
2021/10/07 05:56:06;;;;;;;13.83;6.20;;;12.40;99.90;;;;;;5011215;28;20216;-49
2021/10/07 05:58:33;;;;;;;11.97;5.03;;;12.40;99.90;;;;;;5008678;28;20297;-49
2021/10/07 06:01:00;;;;;;;9.97;5.80;;;12.20;99.90;;;;;;5002867;28;20784;-50
2021/10/07 06:03:27;;;;;;;10.97;6.57;;;12.20;99.90;;;;;;5013051;28;20208;-49
2021/10/07 06:05:54;;;;;;;15.67;7.43;;;12.20;99.90;;;;;;5016846;28;20621;-49
2021/10/07 06:08:21;;;;;;;18.93;7.93;;;12.20;99.90;;;;;;5005901;28;20300;-49
2021/10/07 06:10:47;;;;;;;18.13;8.17;;;12.30;99.90;;;;;;5008890;28;20205;-49
2021/10/07 06:13:18;;;;;;;18.90;8.40;;;12.30;99.90;;;;;;5013582;28;20203;-49
2021/10/07 06:15:45;;;;;;;18.93;8.40;;;12.50;99.90;;;;;;5005352;28;20282;-49
2021/10/07 06:18:12;;;;;;;17.93;9.13;;;12.50;99.90;;;;;;5014254;28;20309;-50
2021/10/07 06:20:39;;;;;;;19.20;8.50;;;12.50;99.90;;;;;;5009803;28;20274;-50
2021/10/07 06:23:06;;;;;;;18.63;8.60;;;12.60;99.90;;;;;;5010859;28;20219;-50
2021/10/07 06:25:34;;;;;;;16.97;8.80;;;12.70;99.90;;;;;;5010770;28;20279;-49
2021/10/07 06:28:05;;;;;;;19.17;8.97;;;12.70;99.90;;;;;;5010616;28;20199;-50
2021/10/07 06:30:33;;;;;;;14.67;8.80;;;12.80;99.90;;;;;;5015174;28;20204;-50
2021/10/07 06:33:00;;;;;;;22.93;9.53;;;12.80;99.90;;;;;;5012484;28;20220;-49
2021/10/07 06:35:27;;;;;;;15.77;9.60;;;12.80;99.90;;;;;;5011981;28;20236;-49
2021/10/07 06:37:55;;;;;;;15.77;8.93;;;12.80;99.90;;;;;;5012448;28;20207;-49
2021/10/07 06:40:22;;;;;;;14.50;8.47;;;12.80;99.90;;;;;;5009576;28;20545;-49
2021/10/07 06:42:49;;;;;;;14.20;9.10;;;12.80;99.90;;;;;;5010830;28;20275;-49
2021/10/07 06:45:16;;;;;;;18.63;9.73;;;12.90;99.90;;;;;;5009730;28;20778;-50
2021/10/07 06:47:43;;;;;;;18.63;10.17;;;12.80;99.90;;;;;;5015044;28;20584;-49
2021/10/07 06:50:11;;;;;;;15.43;9.40;;;12.90;99.90;;;;;;5009608;28;20238;-49
2021/10/07 06:52:41;;;;;;;14.63;8.70;;;12.90;99.90;;;;;;5008437;28;20209;-49
2021/10/07 06:55:10;;;;;;;17.80;9.63;;;12.90;99.90;;;;;;5014008;28;20212;-49
2021/10/07 06:57:39;;;;;;;12.13;8.47;;;12.90;99.90;;;;;;5006348;28;20389;-50
2021/10/07 07:00:08;;;;;;;12.20;8.13;;;12.90;99.90;;;;;;5011439;28;20709;-50
2021/10/07 07:02:36;;;;;;;12.77;8.17;;;12.90;99.90;;;;;;5006605;28;20346;-49
2021/10/07 07:05:05;;;;;;;11.43;8.10;;;12.90;99.90;;;;;;5015382;28;20961;-49
2021/10/07 07:07:33;;;;;;;12.73;8.00;;;13.00;99.90;;;;;;5013451;28;20666;-49
2021/10/07 07:10:00;;;;;;;12.90;7.53;;;13.00;99.90;;;;;;5011461;28;20234;-49
2021/10/07 07:12:40;;;;;;;12.27;8.40;;;13.00;99.90;;;;;;5012333;28;20210;-50
2021/10/07 07:15:07;;;;;;;15.10;8.50;;;13.00;99.90;;;;;;5009647;28;20287;-49
2021/10/07 07:17:34;;;;;;;11.70;7.73;;;13.00;99.90;;;;;;5013378;28;20238;-50
2021/10/07 07:20:01;;;;;;;15.87;7.57;;;13.00;99.90;;;;;;5013043;28;20589;-50
2021/10/07 07:22:28;;;;;;;8.90;6.43;;;13.10;99.90;;;;;;5013682;28;20282;-50
2021/10/07 07:24:55;;;;;;;14.53;6.77;;;13.00;99.90;;;;;;5015150;28;20296;-49
2021/10/07 07:27:23;;;;;;;12.90;6.70;;;13.00;99.90;;;;;;5014225;28;20701;-50
2021/10/07 07:29:50;;;;;;;9.13;6.80;;;13.00;99.90;;;;;;5011024;28;20234;-49
2021/10/07 07:32:18;;;;;;;8.63;6.43;;;13.10;99.90;;;;;;5011705;28;20287;-49
2021/10/07 07:34:45;;;;;;;15.17;7.10;;;13.10;99.90;;;;;;5022380;28;20335;-49
2021/10/07 07:37:11;;;;;;;8.83;6.90;;;12.90;99.90;;;;;;5018316;28;20668;-49
2021/10/07 07:39:38;;;;;;;8.27;6.17;;;13.10;99.90;;;;;;5017954;28;20649;-50
2021/10/07 07:42:05;;;;;;;8.80;5.97;;;13.20;99.90;;;;;;5016244;28;20315;-49
2021/10/07 07:44:32;;;;;;;8.90;5.80;;;13.20;99.90;;;;;;5010702;28;20312;-49
2021/10/07 07:46:59;;;;;;;9.47;5.90;;;13.20;99.90;;;;;;5013825;28;20224;-49
2021/10/07 07:49:26;;;;;;;7.97;6.00;;;13.20;99.90;;;;;;5014198;28;20667;-49
2021/10/07 07:51:53;;;;;;;12.37;5.83;;;13.20;99.90;;;;;;5012921;28;20250;-49
2021/10/07 07:54:20;;;;;;;9.13;6.00;;;13.20;99.90;;;;;;5007600;28;20303;-49
2021/10/07 07:56:47;;;;;;;11.07;5.60;;;13.20;99.90;;;;;;5013630;28;20353;-49
2021/10/07 07:59:14;;;;;;;9.93;6.00;;;12.90;99.90;;;;;;5012649;28;20339;-49
2021/10/07 08:01:41;;;;;;;9.90;6.37;;;13.10;99.90;;;;;;5012331;28;20254;-49
2021/10/07 08:04:08;;;;;;;9.17;6.23;;;13.10;99.90;;;;;;5010960;28;20204;-51
2021/10/07 08:06:36;;;;;;;8.80;6.10;;;13.20;99.90;;;;;;5013658;28;20294;-49
2021/10/07 08:09:04;;;;;;;8.80;6.23;;;13.20;99.90;;;;;;5008470;28;20208;-49
2021/10/07 08:11:33;;;;;;;15.17;7.27;;;13.20;99.90;;;;;;5009760;28;20239;-50
2021/10/07 08:14:00;;;;;;;14.53;7.57;;;13.30;99.90;;;;;;5013504;28;20617;-49
2021/10/07 08:16:29;;;;;;;13.93;7.37;;;13.20;99.90;;;;;;5015250;28;20758;-49
2021/10/07 08:18:56;;;;;;;9.90;7.13;;;13.10;99.90;;;;;;5018566;28;20533;-49
2021/10/07 08:21:22;;;;;;;13.90;7.57;;;13.10;99.90;;;;;;5007591;28;20223;-49
2021/10/07 08:23:50;;;;;;;18.00;7.93;;;13.20;99.90;;;;;;5017563;28;20212;-49
2021/10/07 08:26:16;;;;;;;12.90;7.00;;;12.90;99.90;;;;;;5012020;28;20300;-49
2021/10/07 08:28:43;;;;;;;12.13;6.60;;;13.00;99.90;;;;;;5013695;28;20200;-50
2021/10/07 08:31:12;;;;;;;10.10;7.50;;;13.10;99.90;;;;;;5006348;28;20197;-50
2021/10/07 08:33:40;;;;;;;9.67;7.37;;;13.00;99.90;;;;;;5008652;28;20380;-49
2021/10/07 08:36:07;;;;;;;8.93;6.37;;;13.00;99.90;;;;;;5012563;28;20291;-50
2021/10/07 08:38:34;;;;;;;22.33;6.63;;;13.00;99.90;;;;;;5015744;28;20762;-49
2021/10/07 08:41:01;;;;;;;11.47;6.57;;;12.80;99.90;;;;;;5016435;28;20315;-49
2021/10/07 08:43:28;;;;;;;12.53;7.20;;;12.80;99.90;;;;;;5012097;28;20291;-49
2021/10/07 08:45:55;;;;;;;9.37;7.13;;;12.80;99.90;;;;;;5013848;28;20290;-50
2021/10/07 08:48:22;;;;;;;12.27;6.93;;;12.90;99.90;;;;;;5014950;28;20590;-49
2021/10/07 08:50:49;;;;;;;8.10;6.57;;;12.80;99.90;;;;;;5016309;28;20322;-49
2021/10/07 08:53:16;;;;;;;8.17;6.17;;;12.80;99.90;;;;;;5014430;28;20272;-49
2021/10/07 08:55:43;;;;;;;15.00;6.67;;;12.60;99.90;;;;;;5005335;28;20235;-49
2021/10/07 08:58:11;;;;;;;13.03;6.60;;;12.50;99.90;;;;;;5010156;28;20239;-50
2021/10/07 09:00:38;;;;;;;8.70;6.27;;;12.60;99.90;;;;;;5007257;28;20373;-51
2021/10/07 09:03:19;;;;;;;8.00;6.17;;;12.70;99.90;;;;;;5012851;28;20234;-52
2021/10/07 09:05:46;;;;;;;9.80;6.67;;;12.70;99.90;;;;;;5014647;28;20200;-50
2021/10/07 09:08:15;;;;;;;9.10;7.10;;;12.80;99.90;;;;;;5010778;28;20657;-50
2021/10/07 09:10:49;;;;;;;9.07;6.87;;;12.90;99.90;;;;;;5012133;28;20235;-50
2021/10/07 09:13:22;;;;;;;7.63;6.07;;;12.90;99.90;;;;;;5004840;28;20689;-52
2021/10/07 09:15:57;;;;;;;12.50;7.03;;;13.00;99.90;;;;;;5013322;28;20200;-50
2021/10/07 09:18:26;;;;;;;9.10;6.77;;;13.00;99.90;;;;;;5013250;28;20208;-51
2021/10/07 09:20:56;;;;;;;7.40;5.70;;;13.20;99.90;;;;;;5016252;28;20322;-50
2021/10/07 09:23:34;;;;;;;11.63;8.03;;;13.20;99.90;;;;;;5012852;28;20866;-50
2021/10/07 09:26:09;;;;;;;8.93;6.30;;;13.20;99.90;;;;;;5010480;28;20602;-50
2021/10/07 09:28:52;;;;;;;10.03;7.43;;;13.30;99.90;;;;;;5010020;28;20217;-51
2021/10/07 09:31:31;;;;;;;12.10;7.33;;;13.40;99.90;;;;;;5020637;28;20214;-50
2021/10/07 09:34:06;;;;;;;10.77;7.73;;;13.60;99.90;;;;;;5014172;28;20200;-52
2021/10/07 09:36:34;;;;;;;9.63;7.13;;;13.60;99.90;;;;;;5011691;28;20229;-50
2021/10/07 09:39:03;;;;;;;11.33;8.07;;;13.70;99.90;;;;;;5008653;28;20217;-50
2021/10/07 09:41:32;;;;;;;9.67;7.07;;;13.70;99.90;;;;;;5006066;28;20638;-50
2021/10/07 09:44:01;;;;;;;9.47;6.40;;;13.50;99.90;;;;;;5011980;28;20286;-50
2021/10/07 09:46:47;;;;;;;9.83;7.70;;;13.50;99.90;;;;;;5008203;28;20261;-51
2021/10/07 09:49:17;;;;;;;11.73;7.67;;;13.60;99.90;;;;;;5007862;28;20199;-49
2021/10/07 09:51:51;;;;;;;12.63;7.70;;;13.80;99.90;;;;;;5009933;28;20250;-50
2021/10/07 09:54:20;;;;;;;11.10;7.40;;;13.70;99.90;;;;;;5008376;28;20254;-50
2021/10/07 09:57:02;;;;;;;11.43;7.77;;;13.50;99.90;;;;;;5010695;28;20273;-50
2021/10/07 09:59:31;;;;;;;14.60;8.17;;;13.60;99.90;;;;;;5006880;28;20257;-49
2021/10/07 10:01:59;;;;;;;10.80;7.93;;;13.70;99.90;;;;;;5009965;28;20393;-49
2021/10/07 10:04:28;;;;;;;11.40;8.07;;;13.70;99.90;;;;;;5017433;28;20199;-50
2021/10/07 10:06:55;;;;;;;10.53;7.20;;;13.90;99.90;;;;;;5012292;28;20237;-50
2021/10/07 10:09:27;;;;;;;13.43;9.10;;;14.10;99.90;;;;;;5012945;28;20303;-50
2021/10/07 10:11:54;;;;;;;13.40;8.57;;;14.00;99.90;;;;;;5006651;28;20622;-50
2021/10/07 10:14:22;;;;;;;12.73;8.70;;;13.90;99.90;;;;;;5011922;28;20227;-50
2021/10/07 10:16:51;;;;;;;11.63;8.17;;;14.00;99.90;;;;;;5005886;28;20227;-49
2021/10/07 10:19:18;;;;;;;12.63;8.10;;;13.90;99.90;;;;;;5012516;28;20240;-50
2021/10/07 10:21:47;;;;;;;12.33;8.63;;;14.00;99.90;;;;;;5011717;28;20527;-52
2021/10/07 10:24:14;;;;;;;12.17;8.50;;;14.10;99.90;;;;;;5008447;28;20582;-50
2021/10/07 10:26:56;;;;;;;13.90;9.50;;;14.10;99.90;;;;;;5009755;28;20406;-50
2021/10/07 10:29:23;;;;;;;10.93;8.40;;;14.10;99.90;;;;;;5007149;28;20196;-50
2021/10/07 10:31:52;;;;;;;12.90;9.00;;;14.10;99.90;;;;;;5012403;28;20265;-50
2021/10/07 10:34:22;;;;;;;12.80;8.90;;;14.10;99.90;;;;;;5021684;28;20291;-51
2021/10/07 10:37:00;;;;;;;14.47;10.53;;;14.00;99.90;;;;;;5018261;28;20266;-50
2021/10/07 10:39:34;;;;;;;13.83;8.50;;;13.80;99.90;;;;;;5014481;28;20238;-50
2021/10/07 10:42:06;;;;;;;12.27;9.17;;;13.90;99.90;;;;;;5014952;28;20225;-50
2021/10/07 10:44:40;;;;;;;14.40;9.90;;;14.10;99.90;;;;;;5013233;28;20298;-50
2021/10/07 10:47:07;;;;;;;13.97;9.47;;;14.00;99.90;;;;;;5017160;28;20203;-50
2021/10/07 10:49:50;;;;;;;14.90;10.43;;;14.10;99.90;;;;;;5013834;28;20568;-50
2021/10/07 10:52:27;;;;;;;13.97;9.33;;;14.10;99.90;;;;;;5020811;28;20429;-50
2021/10/07 10:55:05;;;;;;;13.80;9.23;;;14.00;99.90;;;;;;5016186;28;20249;-50
2021/10/07 10:57:38;;;;;;;15.43;9.90;;;14.00;99.90;;;;;;5013199;28;20253;-50
2021/10/07 11:00:11;;;;;;;18.57;9.87;;;14.20;99.90;;;;;;5014775;28;20206;-50
2021/10/07 11:02:40;;;;;;;15.23;9.90;;;14.20;99.90;;;;;;5011067;28;20227;-49
2021/10/07 11:05:17;;;;;;;14.37;10.50;;;14.20;99.90;;;;;;5019410;28;20202;-50
2021/10/07 11:07:45;;;;;;;13.80;9.47;;;14.20;99.90;;;;;;5018990;28;20300;-50
2021/10/07 11:10:27;;;;;;;15.10;10.13;;;14.30;99.90;;;;;;5020942;28;20386;-50
2021/10/07 11:12:56;;;;;;;12.67;9.07;;;14.40;99.90;;;;;;5016214;28;20681;-51
2021/10/07 11:15:28;;;;;;;13.10;9.33;;;14.50;99.90;;;;;;5013716;28;20214;-50
2021/10/07 11:17:57;;;;;;;14.40;10.37;;;14.50;99.90;;;;;;5018974;28;20279;-50
2021/10/07 11:20:31;;;;;;;14.33;10.13;;;14.50;99.90;;;;;;5017245;28;20298;-50
2021/10/07 11:23:07;;;;;;;12.80;9.67;;;14.50;99.90;;;;;;5008033;28;20405;-51
2021/10/07 11:25:36;;;;;;;15.30;10.47;;;14.50;99.90;;;;;;5012521;28;20288;-50
2021/10/07 11:28:04;;;;;;;14.27;9.50;;;14.30;99.90;;;;;;5020201;28;20290;-49
2021/10/07 11:30:35;;;;;;;13.40;10.33;;;14.20;99.90;;;;;;5013885;28;20679;-50
2021/10/07 11:33:05;;;;;;;15.50;10.57;;;14.30;99.90;;;;;;5026123;28;20691;-50
2021/10/07 11:35:33;;;;;;;13.57;10.60;;;14.20;99.90;;;;;;5022769;28;20194;-50
2021/10/07 11:38:06;;;;;;;13.90;9.67;;;14.10;99.90;;;;;;5017997;28;20356;-50
2021/10/07 11:40:38;;;;;;;13.73;10.07;;;14.30;99.90;;;;;;5007808;28;20217;-50
2021/10/07 11:43:15;;;;;;;12.97;9.00;;;14.40;99.90;;;;;;5009885;28;20264;-50
2021/10/07 11:45:48;;;;;;;14.13;10.00;;;14.50;99.90;;;;;;5014323;28;20270;-50
2021/10/07 11:48:16;;;;;;;13.80;9.53;;;14.40;99.90;;;;;;5017894;28;20593;-50
2021/10/07 11:50:44;;;;;;;12.57;9.53;;;14.50;99.90;;;;;;5025396;28;20262;-50
2021/10/07 11:53:13;;;;;;;12.73;9.33;;;14.50;99.90;;;;;;5015539;28;20296;-50
2021/10/07 11:55:44;;;;;;;13.67;9.37;;;14.50;99.90;;;;;;5013143;28;20591;-50
2021/10/07 11:58:12;;;;;;;15.93;10.30;;;14.50;99.90;;;;;;5015541;28;20232;-50
2021/10/07 12:00:44;;;;;;;12.87;9.07;;;14.60;99.90;;;;;;5019645;28;20241;-50
2021/10/07 12:03:23;;;;;;;14.77;9.50;;;14.80;99.90;;;;;;5018894;28;20206;-50
2021/10/07 12:06:14;;;;;;;15.43;9.87;;;14.80;99.90;;;;;;5016408;28;20293;-50
2021/10/07 12:08:43;;;;;;;15.33;10.10;;;14.70;99.90;;;;;;5007786;28;20227;-50
2021/10/07 12:11:17;;;;;;;13.67;10.17;;;14.70;99.90;;;;;;5011174;28;20615;-50
2021/10/07 12:13:47;;;;;;;15.67;10.50;;;14.80;99.90;;;;;;5014887;28;20300;-49
2021/10/07 12:16:17;;;;;;;15.63;10.17;;;14.70;99.90;;;;;;5018167;28;20936;-50
2021/10/07 12:18:48;;;;;;;15.47;10.40;;;14.60;99.90;;;;;;5011570;28;20279;-50
2021/10/07 12:21:17;;;;;;;14.17;10.37;;;14.70;99.90;;;;;;5018744;28;20245;-50
2021/10/07 12:23:58;;;;;;;14.63;11.27;;;14.70;99.90;;;;;;5013173;28;20672;-50
2021/10/07 12:26:43;;;;;;;14.27;9.87;;;14.60;99.90;;;;;;5007025;28;20597;-50
2021/10/07 12:29:18;;;;;;;14.93;10.50;;;14.70;99.90;;;;;;5010913;28;20576;-50
2021/10/07 12:31:56;;;;;;;13.87;10.83;;;14.70;99.90;;;;;;5009478;28;20740;-49
2021/10/07 12:34:33;;;;;;;13.33;10.10;;;14.60;99.90;;;;;;5020641;28;20645;-50
2021/10/07 12:37:02;;;;;;;18.37;10.43;;;14.70;99.90;;;;;;5006509;28;20203;-50
2021/10/07 12:39:35;;;;;;;14.27;9.87;;;14.80;99.90;;;;;;5013201;28;20574;-49
2021/10/07 12:42:06;;;;;;;14.83;9.60;;;14.90;99.90;;;;;;5013095;28;20287;-49
2021/10/07 12:44:36;;;;;;;13.47;9.57;;;14.90;99.90;;;;;;5011192;28;20269;-50
2021/10/07 12:47:06;;;;;;;12.30;9.37;;;15.00;99.90;;;;;;5013345;28;20343;-50
2021/10/07 12:49:40;;;;;;;13.03;9.53;;;15.00;99.90;;;;;;5017221;28;20256;-49
2021/10/07 12:52:14;;;;;;;15.77;10.77;;;15.00;99.90;;;;;;5008713;28;20373;-50